Time;durP1;ratioP1;P1;durP2;ratioP2;P2;SDS_P1;SDS_P2;PMS_P1;PMS_P2;Temp;Humidity;BMP_temperature;BMP_pressure;BME280_temperature;BME280_humidity;BME280_pressure;Samples;Min_cycle;Max_cycle;Signal;HPM_P1;HPM_P2
2022/03/17 00:01:25;;;;;;;23.48;15.27;;;12.00;76.50;;;;;;4969540;28;20046;-73
2022/03/17 00:03:51;;;;;;;23.02;14.95;;;12.00;76.50;;;;;;4970866;28;20027;-74
2022/03/17 00:06:17;;;;;;;20.48;15.68;;;11.90;76.40;;;;;;4970589;28;20043;-72
2022/03/17 00:08:43;;;;;;;21.02;14.50;;;12.00;76.30;;;;;;4985437;28;20054;-74
2022/03/17 00:11:08;;;;;;;20.50;15.35;;;12.00;76.30;;;;;;4969188;28;20023;-75
2022/03/17 00:13:34;;;;;;;21.13;14.65;;;12.00;76.30;;;;;;4970587;28;20030;-72
2022/03/17 00:15:59;;;;;;;24.70;15.18;;;12.00;76.40;;;;;;4969436;28;20895;-73
2022/03/17 00:18:25;;;;;;;22.30;14.70;;;12.00;76.30;;;;;;4985168;28;20033;-76
2022/03/17 00:20:51;;;;;;;22.08;15.65;;;12.00;76.30;;;;;;4987029;28;20037;-76
2022/03/17 00:23:16;;;;;;;23.27;14.95;;;11.90;76.40;;;;;;4970277;28;20513;-74
2022/03/17 00:25:42;;;;;;;22.50;14.77;;;12.00;76.40;;;;;;4985440;28;20046;-74
2022/03/17 00:28:08;;;;;;;21.67;14.52;;;12.00;76.40;;;;;;4978893;28;20161;-75
2022/03/17 00:30:34;;;;;;;21.98;15.27;;;12.00;76.40;;;;;;4989704;28;20502;-73
2022/03/17 00:33:00;;;;;;;24.00;15.43;;;12.00;76.30;;;;;;4988008;28;20117;-74
2022/03/17 00:35:38;;;;;;;23.10;15.10;;;12.00;76.30;;;;;;4989321;28;20034;-74
2022/03/17 00:38:09;;;;;;;20.83;14.98;;;12.00;76.20;;;;;;5004795;28;20427;-74
2022/03/17 00:40:36;;;;;;;21.42;15.00;;;12.00;76.30;;;;;;4988915;28;20026;-73
2022/03/17 00:43:07;;;;;;;25.15;15.55;;;11.90;76.70;;;;;;4989149;28;20072;-72
2022/03/17 00:45:32;;;;;;;24.45;14.88;;;12.00;76.40;;;;;;4989777;28;20038;-74
2022/03/17 00:47:58;;;;;;;23.77;14.75;;;12.00;76.40;;;;;;5004055;28;20030;-72
2022/03/17 00:50:24;;;;;;;22.35;15.18;;;12.00;76.40;;;;;;4987924;28;20558;-74
2022/03/17 00:52:50;;;;;;;23.23;14.93;;;12.00;76.50;;;;;;4989523;28;20023;-73
2022/03/17 00:55:16;;;;;;;20.83;15.13;;;12.00;76.50;;;;;;4989104;28;20023;-76
2022/03/17 00:57:42;;;;;;;20.13;13.85;;;12.00;76.60;;;;;;5004170;28;20022;-74
2022/03/17 01:00:09;;;;;;;22.02;14.25;;;12.00;76.50;;;;;;5003429;28;20046;-75
2022/03/17 01:02:35;;;;;;;23.95;14.57;;;12.00;76.40;;;;;;4987433;28;20173;-75
2022/03/17 01:05:01;;;;;;;21.05;14.43;;;12.00;76.30;;;;;;5002727;28;20113;-72
2022/03/17 01:07:26;;;;;;;25.27;14.57;;;12.00;76.30;;;;;;4988824;28;20074;-72
2022/03/17 01:09:52;;;;;;;20.35;14.10;;;12.00;76.30;;;;;;4988310;28;20094;-76
2022/03/17 01:12:18;;;;;;;23.75;14.88;;;12.00;76.30;;;;;;4988731;28;20784;-72
2022/03/17 01:14:43;;;;;;;22.02;14.88;;;12.00;76.30;;;;;;4987321;28;20161;-74
2022/03/17 01:17:10;;;;;;;22.15;14.10;;;11.80;76.10;;;;;;4987290;28;20137;-73
2022/03/17 01:19:36;;;;;;;24.05;14.40;;;12.00;76.20;;;;;;5003483;28;20030;-76
2022/03/17 01:22:01;;;;;;;21.65;14.27;;;11.90;76.20;;;;;;4987856;28;20030;-73
2022/03/17 01:24:27;;;;;;;19.45;14.15;;;12.00;76.20;;;;;;4988262;28;20514;-74
2022/03/17 01:26:52;;;;;;;22.67;14.75;;;12.00;76.20;;;;;;4988705;28;20061;-74
2022/03/17 01:29:19;;;;;;;18.77;13.63;;;12.00;76.20;;;;;;5003356;28;20615;-74
2022/03/17 01:31:45;;;;;;;23.77;14.35;;;11.90;76.20;;;;;;5003906;28;20033;-73
2022/03/17 01:34:11;;;;;;;20.60;14.90;;;11.90;76.20;;;;;;4987801;28;20029;-73
2022/03/17 01:36:37;;;;;;;17.00;13.15;;;11.90;76.10;;;;;;4986648;28;20026;-74
2022/03/17 01:39:02;;;;;;;21.20;14.65;;;11.90;76.00;;;;;;4988431;28;20030;-74
2022/03/17 01:41:28;;;;;;;20.20;14.20;;;11.90;76.00;;;;;;5003536;28;20030;-74
2022/03/17 01:43:53;;;;;;;20.20;13.90;;;12.00;76.10;;;;;;4988117;28;20109;-74
2022/03/17 01:46:19;;;;;;;19.73;13.88;;;12.00;76.20;;;;;;5003086;28;20031;-73
2022/03/17 01:48:45;;;;;;;20.15;14.32;;;12.00;76.10;;;;;;5003429;28;20022;-74
2022/03/17 01:51:11;;;;;;;22.67;14.27;;;12.00;76.20;;;;;;5003640;28;20024;-74
2022/03/17 01:53:37;;;;;;;20.42;14.05;;;11.90;76.10;;;;;;5003196;28;20018;-74
2022/03/17 01:56:03;;;;;;;20.40;14.30;;;12.00;76.30;;;;;;4986997;28;20057;-73
2022/03/17 01:58:29;;;;;;;20.02;13.90;;;11.90;76.10;;;;;;5003166;28;20069;-74
2022/03/17 02:00:56;;;;;;;24.02;13.73;;;11.90;76.20;;;;;;4987847;28;20061;-74
2022/03/17 02:03:21;;;;;;;25.58;15.23;;;12.00;76.20;;;;;;5003183;28;20789;-73
2022/03/17 02:05:47;;;;;;;27.55;14.80;;;11.90;76.10;;;;;;4987700;28;20038;-72
2022/03/17 02:08:16;;;;;;;27.70;14.18;;;11.90;76.20;;;;;;5003105;28;20462;-76
2022/03/17 02:13:25;;;;;;;29.88;14.73;;;11.90;76.10;;;;;;4988276;28;20110;-74
2022/03/17 02:15:52;;;;;;;25.45;14.45;;;11.90;76.00;;;;;;5003211;28;20034;-73
2022/03/17 02:18:18;;;;;;;21.02;13.68;;;11.90;76.10;;;;;;5006966;28;20400;-74
2022/03/17 02:20:44;;;;;;;27.75;14.10;;;11.90;76.20;;;;;;5006946;28;20038;-74
2022/03/17 02:26:03;;;;;;;19.95;13.70;;;11.90;76.30;;;;;;4992409;28;20407;-73
2022/03/17 02:28:31;;;;;;;21.65;14.15;;;11.90;76.30;;;;;;4991336;28;20096;-74
2022/03/17 02:30:58;;;;;;;23.90;14.05;;;11.90;76.20;;;;;;4990450;28;20030;-74
2022/03/17 02:33:24;;;;;;;20.70;13.80;;;11.90;76.30;;;;;;4991935;28;20098;-75
2022/03/17 02:35:51;;;;;;;19.85;13.95;;;11.90;76.30;;;;;;4990574;28;20030;-73
2022/03/17 02:38:17;;;;;;;19.88;13.20;;;11.90;76.40;;;;;;5006564;28;20034;-72
2022/03/17 02:40:46;;;;;;;23.23;13.10;;;11.90;76.40;;;;;;4991961;28;20038;-73
2022/03/17 02:43:14;;;;;;;27.92;14.48;;;11.80;76.40;;;;;;4991873;28;20388;-73
2022/03/17 02:45:40;;;;;;;26.27;14.23;;;11.90;76.60;;;;;;5006625;28;20022;-73
2022/03/17 02:48:06;;;;;;;24.80;14.35;;;11.90;76.60;;;;;;4990580;28;20030;-74
2022/03/17 02:50:32;;;;;;;34.58;14.82;;;11.90;76.50;;;;;;4991671;28;20034;-73
2022/03/17 02:53:04;;;;;;;31.60;14.55;;;11.80;77.00;;;;;;5006377;28;20027;-74
2022/03/17 02:55:32;;;;;;;25.70;13.75;;;11.90;76.40;;;;;;4991987;28;20019;-75
2022/03/17 02:57:57;;;;;;;25.48;13.77;;;11.90;76.40;;;;;;5006515;28;20113;-73
2022/03/17 03:00:22;;;;;;;28.45;13.88;;;11.90;77.00;;;;;;5006423;28;20338;-73
2022/03/17 03:02:48;;;;;;;29.23;14.73;;;11.90;76.50;;;;;;5006779;28;20034;-75
2022/03/17 03:05:13;;;;;;;25.40;14.07;;;11.90;76.60;;;;;;5006592;28;20022;-74
2022/03/17 03:07:39;;;;;;;27.65;14.55;;;11.90;76.60;;;;;;5006568;28;20022;-75
2022/03/17 03:10:06;;;;;;;33.40;14.50;;;11.90;76.50;;;;;;5006679;28;20531;-74
2022/03/17 03:12:31;;;;;;;31.73;14.30;;;11.90;76.50;;;;;;4988510;28;20111;-74
2022/03/17 03:14:57;;;;;;;30.92;14.88;;;11.90;76.50;;;;;;4991104;28;20061;-74
2022/03/17 03:17:23;;;;;;;28.40;14.57;;;11.90;76.60;;;;;;5005956;28;20034;-73
2022/03/17 03:19:49;;;;;;;28.75;13.77;;;11.90;76.60;;;;;;5006508;28;20036;-74
2022/03/17 03:22:17;;;;;;;25.75;13.60;;;11.90;76.60;;;;;;5006017;28;20121;-73
2022/03/17 03:24:44;;;;;;;22.77;13.65;;;11.90;76.60;;;;;;4990396;28;20031;-73
2022/03/17 03:27:10;;;;;;;23.52;14.02;;;11.80;76.50;;;;;;5005326;28;20040;-73
2022/03/17 03:29:35;;;;;;;19.38;14.13;;;11.90;76.50;;;;;;5005211;28;20383;-72
2022/03/17 03:32:05;;;;;;;20.23;13.55;;;11.90;76.60;;;;;;5005705;28;20049;-73
2022/03/17 03:34:32;;;;;;;19.08;13.60;;;11.90;76.50;;;;;;5005949;28;20054;-74
2022/03/17 03:39:43;;;;;;;20.23;12.95;;;11.90;76.50;;;;;;4991401;28;20049;-74
2022/03/17 03:42:10;;;;;;;20.98;14.05;;;11.90;76.50;;;;;;4991018;28;20383;-74
2022/03/17 03:44:37;;;;;;;20.55;13.73;;;11.80;76.40;;;;;;5005927;28;20033;-74
2022/03/17 03:47:04;;;;;;;22.55;14.07;;;11.90;76.40;;;;;;5005421;28;20038;-73
2022/03/17 03:49:30;;;;;;;19.52;14.30;;;11.90;76.50;;;;;;5005706;28;20023;-74
2022/03/17 03:51:55;;;;;;;24.60;14.40;;;11.90;76.50;;;;;;5005561;28;20030;-72
2022/03/17 03:54:21;;;;;;;19.45;14.20;;;11.80;76.40;;;;;;4990792;28;20030;-73
2022/03/17 03:56:47;;;;;;;22.05;14.98;;;11.90;76.50;;;;;;4989167;28;20019;-76
2022/03/17 03:59:17;;;;;;;22.35;14.75;;;11.90;76.60;;;;;;4990206;28;20427;-73
2022/03/17 04:01:43;;;;;;;21.40;14.80;;;11.90;76.60;;;;;;4990246;28;20165;-74
2022/03/17 04:04:09;;;;;;;22.23;14.60;;;11.80;76.40;;;;;;4990358;28;20121;-72
2022/03/17 04:06:41;;;;;;;20.65;14.57;;;11.90;76.50;;;;;;4990434;28;20422;-75
2022/03/17 04:09:06;;;;;;;20.55;15.43;;;11.90;76.40;;;;;;4989914;28;20022;-73
2022/03/17 04:11:32;;;;;;;22.65;14.45;;;11.90;76.40;;;;;;5004687;28;20435;-72
2022/03/17 04:13:57;;;;;;;23.38;15.40;;;11.90;76.50;;;;;;5004512;28;20484;-73
2022/03/17 04:16:23;;;;;;;26.20;15.98;;;11.90;76.60;;;;;;4989982;28;20014;-76
2022/03/17 04:18:48;;;;;;;27.40;15.40;;;11.90;76.70;;;;;;4989030;28;20026;-74
2022/03/17 04:21:14;;;;;;;25.60;16.15;;;11.90;76.70;;;;;;4990056;28;20030;-75
2022/03/17 04:23:39;;;;;;;25.15;15.82;;;11.90;76.50;;;;;;4988384;28;20387;-74
2022/03/17 04:26:04;;;;;;;26.98;16.10;;;11.90;76.60;;;;;;5005391;28;20022;-74
2022/03/17 04:28:30;;;;;;;26.25;16.27;;;11.80;76.50;;;;;;4989761;28;20027;-74
2022/03/17 04:30:55;;;;;;;25.10;16.55;;;11.90;76.50;;;;;;4990338;28;20048;-75
2022/03/17 04:33:21;;;;;;;24.10;16.15;;;11.80;76.60;;;;;;4988564;28;20022;-72
2022/03/17 04:35:46;;;;;;;25.50;16.63;;;11.90;76.60;;;;;;4989975;28;20022;-73
2022/03/17 04:38:12;;;;;;;27.02;16.33;;;11.90;76.60;;;;;;5004454;28;20030;-75
2022/03/17 04:40:37;;;;;;;26.08;16.52;;;11.90;76.60;;;;;;5004240;28;20030;-72
2022/03/17 04:43:03;;;;;;;28.42;17.08;;;11.90;76.40;;;;;;4988156;28;20019;-74
2022/03/17 04:45:28;;;;;;;28.63;17.23;;;11.90;76.50;;;;;;5004031;28;20058;-72
2022/03/17 04:47:54;;;;;;;39.88;17.48;;;11.90;76.40;;;;;;4988665;28;20023;-74
2022/03/17 04:50:19;;;;;;;29.58;17.00;;;11.90;76.60;;;;;;4989416;28;20049;-73
2022/03/17 04:55:29;;;;;;;27.02;18.00;;;11.90;76.50;;;;;;4989283;28;20118;-75
2022/03/17 04:57:54;;;;;;;28.35;17.35;;;11.90;76.40;;;;;;5003765;28;20125;-73
2022/03/17 05:00:20;;;;;;;23.88;16.33;;;11.80;76.40;;;;;;4987684;28;20029;-75
2022/03/17 05:02:46;;;;;;;24.15;16.80;;;11.90;76.50;;;;;;4987781;28;20040;-74
2022/03/17 05:05:11;;;;;;;24.60;16.60;;;11.80;76.50;;;;;;4987939;28;20027;-74
2022/03/17 05:07:37;;;;;;;23.33;17.30;;;11.90;76.50;;;;;;5003863;28;20018;-73
2022/03/17 05:10:03;;;;;;;25.17;17.17;;;11.90;76.40;;;;;;4987201;28;20104;-74
2022/03/17 05:12:28;;;;;;;23.48;16.58;;;11.80;76.40;;;;;;4986103;28;20514;-76
2022/03/17 05:14:54;;;;;;;28.42;18.35;;;11.90;76.40;;;;;;4987101;28;20030;-74
2022/03/17 05:17:19;;;;;;;25.52;17.40;;;11.80;76.30;;;;;;4988154;28;20968;-74
2022/03/17 05:19:45;;;;;;;24.27;17.48;;;11.90;76.40;;;;;;5003543;28;20034;-74
2022/03/17 05:22:10;;;;;;;25.33;17.13;;;11.90;76.40;;;;;;5003671;28;20061;-74
2022/03/17 05:24:36;;;;;;;22.67;17.55;;;11.80;76.40;;;;;;5003565;28;20022;-74
2022/03/17 05:27:01;;;;;;;22.98;17.33;;;11.90;76.40;;;;;;4985754;28;20388;-72
2022/03/17 05:29:27;;;;;;;26.98;18.75;;;11.90;76.50;;;;;;4987054;28;20484;-73
2022/03/17 05:31:53;;;;;;;22.20;17.63;;;11.80;76.40;;;;;;4988482;28;20141;-73
2022/03/17 05:34:19;;;;;;;21.77;17.13;;;11.80;76.40;;;;;;4988532;28;20026;-73
2022/03/17 05:36:45;;;;;;;23.33;17.67;;;11.80;76.90;;;;;;4988714;28;20027;-73
2022/03/17 05:39:10;;;;;;;24.00;17.48;;;11.80;76.40;;;;;;4987901;28;20027;-73
2022/03/17 05:41:36;;;;;;;25.35;18.27;;;11.80;76.40;;;;;;4987322;28;20072;-75
2022/03/17 05:44:01;;;;;;;23.30;18.17;;;11.80;76.40;;;;;;5003007;28;20396;-74
2022/03/17 05:46:26;;;;;;;22.23;17.98;;;11.80;76.40;;;;;;5003020;28;20030;-74
2022/03/17 05:48:53;;;;;;;21.08;17.58;;;11.80;76.30;;;;;;4987619;28;20092;-74
2022/03/17 05:51:18;;;;;;;24.63;18.73;;;11.80;76.20;;;;;;5005226;28;20026;-74
2022/03/17 05:53:44;;;;;;;21.70;18.02;;;11.80;76.20;;;;;;5005598;28;20504;-74
2022/03/17 05:56:09;;;;;;;23.95;18.75;;;11.80;76.20;;;;;;4978330;28;20034;-72
2022/03/17 05:58:35;;;;;;;24.00;18.98;;;11.80;76.30;;;;;;4982511;28;20405;-73
2022/03/17 06:01:00;;;;;;;23.38;18.90;;;11.90;76.40;;;;;;5004862;28;20041;-73
2022/03/17 06:03:26;;;;;;;24.13;18.20;;;11.80;76.20;;;;;;4991263;28;20093;-76
2022/03/17 06:05:51;;;;;;;27.50;18.95;;;11.80;76.20;;;;;;5004996;28;20149;-75
2022/03/17 06:08:17;;;;;;;24.30;19.02;;;11.80;76.20;;;;;;4985654;28;20037;-74
2022/03/17 06:10:42;;;;;;;23.35;18.67;;;11.80;76.30;;;;;;4988018;28;20058;-75
2022/03/17 06:13:08;;;;;;;22.33;17.98;;;11.80;76.30;;;;;;4997938;28;20035;-73
2022/03/17 06:15:34;;;;;;;22.67;18.33;;;11.80;76.30;;;;;;4985550;28;20389;-75
2022/03/17 06:18:03;;;;;;;23.73;19.20;;;11.80;76.10;;;;;;4989924;28;20027;-78
2022/03/17 06:23:06;;;;;;;22.63;18.90;;;11.80;75.40;;;;;;5121901;22;20115;-74
2022/03/17 06:25:34;;;;;;;23.08;18.58;;;11.80;75.60;;;;;;5002779;28;20026;-77
2022/03/17 06:28:00;;;;;;;23.40;19.10;;;11.80;75.60;;;;;;5008499;28;20478;-73
2022/03/17 06:30:35;;;;;;;28.08;19.52;;;11.80;75.70;;;;;;5027674;28;20041;-76
2022/03/17 06:33:01;;;;;;;26.63;18.98;;;11.90;75.60;;;;;;5009846;28;20032;-77
2022/03/17 06:35:28;;;;;;;25.77;18.17;;;11.90;75.90;;;;;;4990837;28;20054;-80
2022/03/17 06:37:56;;;;;;;24.25;18.73;;;11.90;76.20;;;;;;4984443;28;20150;-76
2022/03/17 06:40:23;;;;;;;25.40;19.08;;;11.90;76.00;;;;;;4970055;28;20027;-75
2022/03/17 06:42:49;;;;;;;23.77;19.05;;;11.90;76.10;;;;;;4969530;28;20079;-77
2022/03/17 06:45:16;;;;;;;24.55;20.02;;;11.90;75.10;;;;;;4965725;28;20492;-77
2022/03/17 06:47:42;;;;;;;25.33;19.95;;;11.90;74.70;;;;;;4966414;28;20031;-76
2022/03/17 06:50:09;;;;;;;24.30;19.38;;;11.90;75.00;;;;;;4968718;28;20070;-75
2022/03/17 06:52:35;;;;;;;23.67;19.58;;;11.80;75.10;;;;;;4966710;28;20053;-78
2022/03/17 06:55:01;;;;;;;26.50;19.67;;;11.80;75.40;;;;;;4975217;28;20022;-77
2022/03/17 06:57:26;;;;;;;25.98;19.70;;;11.90;75.60;;;;;;4986609;28;20038;-74
2022/03/17 06:59:52;;;;;;;24.13;19.10;;;11.80;75.70;;;;;;4985580;28;20038;-75
2022/03/17 07:02:18;;;;;;;24.58;19.83;;;11.90;76.40;;;;;;4986190;28;20088;-78
2022/03/17 07:04:44;;;;;;;24.95;19.77;;;11.80;75.90;;;;;;4992594;28;20022;-78
2022/03/17 07:07:10;;;;;;;24.65;19.55;;;11.90;75.80;;;;;;4991107;28;20034;-78
2022/03/17 07:09:36;;;;;;;24.90;20.50;;;11.80;75.80;;;;;;4989796;28;20121;-77
2022/03/17 07:12:02;;;;;;;27.17;19.70;;;11.80;75.90;;;;;;4991230;28;20030;-75
2022/03/17 07:14:28;;;;;;;25.58;19.65;;;11.80;75.90;;;;;;4992014;28;20026;-75
2022/03/17 07:16:53;;;;;;;24.33;20.10;;;11.90;76.00;;;;;;4993606;28;20030;-74
2022/03/17 07:19:19;;;;;;;24.45;19.23;;;11.90;76.10;;;;;;4992521;28;20141;-74
2022/03/17 07:21:44;;;;;;;26.65;20.35;;;11.90;76.30;;;;;;4991764;28;20056;-74
2022/03/17 07:24:10;;;;;;;24.33;20.08;;;11.90;76.30;;;;;;4991928;28;20153;-74
2022/03/17 07:26:36;;;;;;;24.65;20.08;;;11.90;76.40;;;;;;4993701;28;20453;-74
2022/03/17 07:29:03;;;;;;;23.40;19.80;;;11.90;76.50;;;;;;4993287;28;20506;-75
2022/03/17 07:31:29;;;;;;;23.77;20.60;;;11.80;76.60;;;;;;4992101;28;20026;-75
2022/03/17 07:33:55;;;;;;;24.52;19.80;;;11.90;76.70;;;;;;4993652;28;20027;-75
2022/03/17 07:36:21;;;;;;;22.52;19.08;;;11.90;76.80;;;;;;4992435;28;20025;-75
2022/03/17 07:38:47;;;;;;;23.10;19.75;;;11.90;76.80;;;;;;4993484;28;20033;-74
2022/03/17 07:41:14;;;;;;;22.98;19.85;;;11.80;76.90;;;;;;4993154;28;20126;-74
2022/03/17 07:43:41;;;;;;;24.40;20.45;;;11.80;76.90;;;;;;4993388;28;20023;-74
2022/03/17 07:46:06;;;;;;;23.10;19.85;;;11.80;77.10;;;;;;4991897;28;20057;-75
2022/03/17 07:48:32;;;;;;;23.42;19.58;;;11.90;77.20;;;;;;4993538;28;20499;-76
2022/03/17 07:50:57;;;;;;;24.45;20.00;;;11.80;77.30;;;;;;4991677;28;20026;-75
2022/03/17 07:53:23;;;;;;;24.65;20.15;;;11.80;77.40;;;;;;4993564;28;20023;-75
2022/03/17 07:55:54;;;;;;;24.60;19.85;;;11.80;77.50;;;;;;4991930;28;20046;-75
2022/03/17 07:58:24;;;;;;;24.70;20.30;;;11.80;77.60;;;;;;4991253;28;20585;-75
2022/03/17 08:00:51;;;;;;;23.40;19.77;;;11.80;77.70;;;;;;4991753;28;20488;-74
2022/03/17 08:03:17;;;;;;;24.00;19.77;;;11.90;77.90;;;;;;4991620;28;20061;-75
2022/03/17 08:05:46;;;;;;;25.67;19.88;;;11.80;77.90;;;;;;4992166;28;20057;-75
2022/03/17 08:08:13;;;;;;;24.80;20.25;;;11.80;78.00;;;;;;4991429;28;20049;-77
2022/03/17 08:10:38;;;;;;;24.13;20.55;;;11.90;78.10;;;;;;4990921;28;20514;-74
2022/03/17 08:13:06;;;;;;;23.23;20.08;;;11.80;78.10;;;;;;4991028;28;20045;-75
2022/03/17 08:15:31;;;;;;;22.92;19.75;;;11.80;78.30;;;;;;4992151;28;20026;-75
2022/03/17 08:17:57;;;;;;;25.00;19.98;;;11.80;78.40;;;;;;4992411;28;20081;-75
2022/03/17 08:20:23;;;;;;;24.08;20.17;;;11.80;78.50;;;;;;4991060;28;20034;-75
2022/03/17 08:22:50;;;;;;;23.30;20.23;;;11.90;78.80;;;;;;4991004;28;20026;-74
2022/03/17 08:25:16;;;;;;;24.58;20.67;;;11.80;78.80;;;;;;4991576;28;20062;-74
2022/03/17 08:27:42;;;;;;;24.80;19.95;;;11.90;78.90;;;;;;4991387;28;20113;-75
2022/03/17 08:30:09;;;;;;;24.95;20.70;;;11.80;79.00;;;;;;4991436;28;20041;-75
2022/03/17 08:32:34;;;;;;;25.70;20.65;;;11.80;79.10;;;;;;4991758;28;20034;-74
2022/03/17 08:35:00;;;;;;;23.67;20.10;;;11.90;79.10;;;;;;4990684;28;20072;-74
2022/03/17 08:37:26;;;;;;;25.90;20.83;;;11.80;79.10;;;;;;4992370;28;20030;-74
2022/03/17 08:39:51;;;;;;;24.83;19.92;;;11.90;79.20;;;;;;4990841;28;20487;-75
2022/03/17 08:42:17;;;;;;;22.63;19.10;;;11.80;79.20;;;;;;4990798;28;20029;-76
2022/03/17 08:44:42;;;;;;;24.38;20.08;;;11.90;79.50;;;;;;4991160;28;20085;-74
2022/03/17 08:49:52;;;;;;;22.83;18.88;;;11.90;79.70;;;;;;4984496;28;20080;-73
2022/03/17 08:52:19;;;;;;;22.52;18.58;;;11.80;79.80;;;;;;4990127;28;20057;-75
2022/03/17 08:54:45;;;;;;;21.70;18.08;;;11.80;79.70;;;;;;4990375;28;20034;-76
2022/03/17 08:57:12;;;;;;;20.77;17.23;;;11.80;79.70;;;;;;4991590;28;20023;-74
2022/03/17 08:59:38;;;;;;;19.67;15.38;;;11.90;80.40;;;;;;4990019;28;20034;-73
2022/03/17 09:02:11;;;;;;;19.23;14.85;;;11.80;79.70;;;;;;4989287;28;20149;-75
2022/03/17 09:04:37;;;;;;;35.85;16.98;;;11.90;79.90;;;;;;4989308;28;20077;-73
2022/03/17 09:07:03;;;;;;;24.73;14.77;;;11.90;79.70;;;;;;4988982;28;20026;-75
2022/03/17 09:09:36;;;;;;;19.92;13.38;;;11.90;79.30;;;;;;4989819;28;20130;-75
2022/03/17 09:12:05;;;;;;;17.27;12.77;;;11.90;79.80;;;;;;4987547;28;20073;-75
2022/03/17 09:14:41;;;;;;;16.40;11.55;;;11.80;79.60;;;;;;4990615;28;20998;-74
2022/03/17 09:17:07;;;;;;;14.50;10.45;;;11.80;79.70;;;;;;4990908;28;20022;-75
2022/03/17 09:19:32;;;;;;;12.95;10.32;;;11.80;80.00;;;;;;4990629;28;20069;-76
2022/03/17 09:21:58;;;;;;;12.65;10.07;;;11.80;80.20;;;;;;4988939;28;20077;-74
2022/03/17 09:24:26;;;;;;;13.40;9.88;;;11.80;80.40;;;;;;4987091;28;20034;-73
2022/03/17 09:26:52;;;;;;;12.60;9.60;;;11.80;80.30;;;;;;4985701;28;20034;-76
2022/03/17 09:29:17;;;;;;;12.23;9.18;;;11.80;80.40;;;;;;4985215;28;20046;-72
2022/03/17 09:31:43;;;;;;;12.02;9.25;;;11.80;80.20;;;;;;4986416;28;20030;-75
2022/03/17 09:34:09;;;;;;;14.13;9.00;;;11.90;80.20;;;;;;4986713;28;20526;-73
2022/03/17 09:36:34;;;;;;;12.52;9.13;;;11.80;80.00;;;;;;4985445;28;20026;-74
2022/03/17 09:41:44;;;;;;;11.73;8.52;;;11.80;80.00;;;;;;4986490;28;20078;-77
2022/03/17 09:44:10;;;;;;;11.20;7.97;;;11.80;80.00;;;;;;4986748;28;20492;-77
2022/03/17 09:46:38;;;;;;;11.18;8.48;;;11.80;80.10;;;;;;4986439;28;20030;-74
2022/03/17 09:49:04;;;;;;;11.43;8.57;;;11.80;80.00;;;;;;4985119;28;20046;-73
2022/03/17 09:51:30;;;;;;;11.35;8.38;;;11.80;80.10;;;;;;4986319;28;20053;-75
2022/03/17 09:54:00;;;;;;;11.20;8.13;;;11.80;80.10;;;;;;4985280;28;20698;-74
2022/03/17 09:56:27;;;;;;;10.60;7.72;;;11.80;80.00;;;;;;4986425;28;20050;-73
2022/03/17 09:58:58;;;;;;;10.18;7.22;;;11.80;79.90;;;;;;4986538;28;20034;-75
2022/03/17 10:01:28;;;;;;;12.65;7.80;;;11.80;80.00;;;;;;4985418;28;20388;-76
2022/03/17 10:04:02;;;;;;;11.32;7.45;;;11.80;80.10;;;;;;4984566;28;20039;-75
2022/03/17 10:06:29;;;;;;;14.60;8.45;;;11.80;79.90;;;;;;4986317;28;20564;-77
2022/03/17 10:08:55;;;;;;;14.50;7.80;;;11.80;80.00;;;;;;4984804;28;20061;-76
2022/03/17 10:11:25;;;;;;;12.68;7.22;;;11.70;79.80;;;;;;4985383;28;20145;-73
2022/03/17 10:13:51;;;;;;;11.45;7.00;;;11.80;79.80;;;;;;4985134;28;20042;-75
2022/03/17 10:16:20;;;;;;;16.52;6.82;;;11.80;79.80;;;;;;4986181;28;20030;-75
2022/03/17 10:18:46;;;;;;;9.80;6.47;;;11.80;79.80;;;;;;4984655;28;20028;-73
2022/03/17 10:21:17;;;;;;;10.38;6.30;;;11.80;79.80;;;;;;4984697;28;20033;-75
2022/03/17 10:23:56;;;;;;;9.07;6.43;;;11.80;79.80;;;;;;4986235;28;20034;-76
2022/03/17 10:26:49;;;;;;;9.15;5.80;;;11.80;79.70;;;;;;4984944;28;20038;-74
2022/03/17 10:29:19;;;;;;;9.48;6.32;;;11.80;79.70;;;;;;4984756;28;20077;-75
2022/03/17 10:31:56;;;;;;;10.55;5.90;;;11.80;79.70;;;;;;4984274;28;20495;-74
2022/03/17 10:34:26;;;;;;;10.10;5.90;;;11.80;79.60;;;;;;4985166;28;20088;-74
2022/03/17 10:37:06;;;;;;;9.55;5.32;;;11.80;79.60;;;;;;4985612;28;20561;-74
2022/03/17 10:39:52;;;;;;;9.02;5.55;;;11.80;79.50;;;;;;4988810;28;20034;-75
2022/03/17 10:42:20;;;;;;;8.73;5.32;;;11.80;79.50;;;;;;4989630;28;20057;-75
2022/03/17 10:44:47;;;;;;;7.90;4.70;;;11.80;79.60;;;;;;4990100;28;20034;-78
2022/03/17 10:47:12;;;;;;;9.35;5.20;;;11.80;79.70;;;;;;4988474;28;20030;-75
2022/03/17 10:49:55;;;;;;;7.22;4.68;;;11.80;79.70;;;;;;4989610;28;20092;-74
2022/03/17 10:52:21;;;;;;;8.18;4.50;;;11.80;79.60;;;;;;4987790;28;20041;-73
2022/03/17 10:54:56;;;;;;;8.07;4.50;;;11.80;79.60;;;;;;4989662;28;20031;-75
2022/03/17 10:57:24;;;;;;;9.23;4.28;;;11.80;80.10;;;;;;4988024;28;20280;-74
2022/03/17 10:59:53;;;;;;;7.30;4.35;;;11.80;79.60;;;;;;4988787;28;20033;-75
2022/03/17 11:02:24;;;;;;;7.80;4.22;;;11.80;79.50;;;;;;4988046;28;20049;-75
2022/03/17 11:04:50;;;;;;;9.18;4.38;;;11.80;79.50;;;;;;4989515;28;20027;-72
2022/03/17 11:07:17;;;;;;;8.13;4.32;;;11.80;80.00;;;;;;4989591;28;20164;-73
2022/03/17 11:09:44;;;;;;;7.60;3.97;;;11.80;79.50;;;;;;4988357;28;20034;-75
2022/03/17 11:12:17;;;;;;;8.35;3.60;;;11.80;79.60;;;;;;4987305;28;20026;-75
2022/03/17 11:14:50;;;;;;;8.02;3.83;;;11.80;79.60;;;;;;4989552;28;20368;-74
2022/03/17 11:17:21;;;;;;;7.78;3.40;;;11.80;79.60;;;;;;4990854;28;20089;-75
2022/03/17 11:19:47;;;;;;;7.20;3.22;;;11.80;79.50;;;;;;4989252;28;20488;-74
2022/03/17 11:22:15;;;;;;;7.30;3.15;;;11.80;79.60;;;;;;4988621;28;20033;-74
2022/03/17 11:24:41;;;;;;;7.20;3.22;;;11.80;79.40;;;;;;4989070;28;20310;-73
2022/03/17 11:27:14;;;;;;;7.38;2.95;;;11.80;79.30;;;;;;4989139;28;20121;-74
2022/03/17 11:29:44;;;;;;;6.13;2.65;;;11.80;79.20;;;;;;4990121;28;20037;-74
2022/03/17 11:32:29;;;;;;;7.18;3.30;;;11.80;79.30;;;;;;4991401;28;20018;-72
2022/03/17 11:35:09;;;;;;;5.93;2.80;;;11.80;79.20;;;;;;4989262;28;20539;-73
2022/03/17 11:37:35;;;;;;;8.20;3.15;;;11.80;79.10;;;;;;4988810;28;20117;-73
2022/03/17 11:40:07;;;;;;;6.93;2.60;;;11.80;79.20;;;;;;4987218;28;20145;-75
2022/03/17 11:42:47;;;;;;;7.18;2.88;;;11.80;79.30;;;;;;4987596;28;20034;-76
2022/03/17 11:45:15;;;;;;;5.22;2.47;;;11.80;79.20;;;;;;4988995;28;20030;-75
2022/03/17 11:47:55;;;;;;;8.75;2.38;;;11.80;79.00;;;;;;4988842;28;20038;-74
2022/03/17 11:50:27;;;;;;;6.25;2.40;;;11.80;79.00;;;;;;4988116;28;20034;-74
2022/03/17 11:52:56;;;;;;;7.45;2.33;;;11.80;79.00;;;;;;4988370;28;20114;-77
2022/03/17 11:55:41;;;;;;;6.63;2.33;;;11.80;79.00;;;;;;4987222;28;20399;-74
2022/03/17 11:58:42;;;;;;;4.93;2.10;;;11.80;78.90;;;;;;4988401;28;20030;-73
2022/03/17 12:01:13;;;;;;;6.35;2.17;;;11.80;78.90;;;;;;4985914;28;20064;-73
2022/03/17 12:03:44;;;;;;;6.53;2.42;;;11.80;78.80;;;;;;4987031;28;20504;-75
2022/03/17 12:06:14;;;;;;;6.85;2.13;;;11.80;78.80;;;;;;4987071;28;20468;-74
2022/03/17 12:08:58;;;;;;;9.35;2.30;;;11.80;78.80;;;;;;4986051;28;20534;-73
2022/03/17 12:11:25;;;;;;;5.63;1.92;;;11.80;78.70;;;;;;4987695;28;20363;-74
2022/03/17 12:14:14;;;;;;;5.40;2.13;;;11.80;78.50;;;;;;4986840;28;20136;-73
2022/03/17 12:16:57;;;;;;;4.95;2.03;;;11.80;78.50;;;;;;4986721;28;20031;-75
2022/03/17 12:19:31;;;;;;;7.95;2.20;;;11.80;78.40;;;;;;4986998;28;20026;-74
2022/03/17 12:22:03;;;;;;;6.22;1.80;;;11.80;78.40;;;;;;4987898;28;20027;-74
2022/03/17 12:24:45;;;;;;;5.72;1.92;;;11.80;78.40;;;;;;4988046;28;20480;-73
2022/03/17 12:27:19;;;;;;;5.10;1.98;;;11.80;78.40;;;;;;4986654;28;20041;-74
2022/03/17 12:29:47;;;;;;;5.55;2.10;;;11.80;78.40;;;;;;4986325;28;20371;-73
2022/03/17 12:32:18;;;;;;;5.38;1.80;;;11.80;78.50;;;;;;4987627;28;20069;-76
2022/03/17 12:34:46;;;;;;;4.45;1.65;;;11.80;78.40;;;;;;4987777;28;20022;-75
2022/03/17 12:37:13;;;;;;;6.30;2.00;;;11.80;78.40;;;;;;4986676;28;20033;-74
2022/03/17 12:39:39;;;;;;;6.13;2.08;;;11.80;78.50;;;;;;4987367;28;20236;-73
2022/03/17 12:42:26;;;;;;;5.55;2.05;;;11.80;78.50;;;;;;4986126;28;20353;-75
2022/03/17 12:44:53;;;;;;;6.05;1.73;;;11.80;78.40;;;;;;4986334;28;20088;-77
2022/03/17 12:47:21;;;;;;;6.35;2.10;;;11.80;78.30;;;;;;4986594;28;20841;-72
2022/03/17 12:49:47;;;;;;;6.47;1.92;;;11.80;78.30;;;;;;4987516;28;20034;-74
2022/03/17 12:52:21;;;;;;;5.80;2.15;;;11.80;78.20;;;;;;4987118;28;20456;-75